sensor_id;sensor_type;location;lat;lon;timestamp;P1;durP1;ratioP1;P2;durP2;ratioP2
48574;SDS011;34352;51.084;3.712;2023-02-27T00:00:55;4.28;;;2.10;;
48574;SDS011;34352;51.084;3.712;2023-02-27T00:03:23;5.38;;;2.53;;
48574;SDS011;34352;51.084;3.712;2023-02-27T00:05:50;7.93;;;2.42;;
48574;SDS011;34352;51.084;3.712;2023-02-27T00:11:14;8.30;;;2.50;;
48574;SDS011;34352;51.084;3.712;2023-02-27T00:13:44;5.95;;;2.33;;
48574;SDS011;34352;51.084;3.712;2023-02-27T00:16:11;9.30;;;2.90;;
48574;SDS011;34352;51.084;3.712;2023-02-27T00:18:37;10.88;;;2.42;;
48574;SDS011;34352;51.084;3.712;2023-02-27T00:21:03;3.72;;;2.30;;
48574;SDS011;34352;51.084;3.712;2023-02-27T00:23:31;7.82;;;2.65;;
48574;SDS011;34352;51.084;3.712;2023-02-27T00:26:02;5.18;;;2.00;;
48574;SDS011;34352;51.084;3.712;2023-02-27T00:28:29;5.43;;;2.30;;
48574;SDS011;34352;51.084;3.712;2023-02-27T00:30:56;7.18;;;2.45;;
48574;SDS011;34352;51.084;3.712;2023-02-27T00:33:22;5.03;;;2.40;;
48574;SDS011;34352;51.084;3.712;2023-02-27T00:35:59;9.45;;;2.50;;
48574;SDS011;34352;51.084;3.712;2023-02-27T00:38:26;7.15;;;2.42;;
48574;SDS011;34352;51.084;3.712;2023-02-27T00:40:54;8.00;;;2.40;;
48574;SDS011;34352;51.084;3.712;2023-02-27T00:43:21;5.97;;;1.95;;
48574;SDS011;34352;51.084;3.712;2023-02-27T00:45:47;8.77;;;2.50;;
48574;SDS011;34352;51.084;3.712;2023-02-27T00:48:13;6.30;;;2.53;;
48574;SDS011;34352;51.084;3.712;2023-02-27T00:50:41;5.07;;;2.72;;
48574;SDS011;34352;51.084;3.712;2023-02-27T00:55:37;7.88;;;3.05;;
48574;SDS011;34352;51.084;3.712;2023-02-27T00:58:03;8.82;;;2.70;;
48574;SDS011;34352;51.084;3.712;2023-02-27T01:00:29;5.25;;;2.28;;
48574;SDS011;34352;51.084;3.712;2023-02-27T01:02:55;7.43;;;2.47;;
48574;SDS011;34352;51.084;3.712;2023-02-27T01:05:21;4.57;;;2.15;;
48574;SDS011;34352;51.084;3.712;2023-02-27T01:07:47;6.22;;;2.70;;
48574;SDS011;34352;51.084;3.712;2023-02-27T01:10:14;9.25;;;2.70;;
48574;SDS011;34352;51.084;3.712;2023-02-27T01:12:39;4.53;;;2.30;;
48574;SDS011;34352;51.084;3.712;2023-02-27T01:15:12;6.97;;;2.95;;
48574;SDS011;34352;51.084;3.712;2023-02-27T01:17:38;6.47;;;2.65;;
48574;SDS011;34352;51.084;3.712;2023-02-27T01:20:07;6.82;;;2.80;;
48574;SDS011;34352;51.084;3.712;2023-02-27T01:22:35;8.63;;;3.00;;
48574;SDS011;34352;51.084;3.712;2023-02-27T01:25:03;5.85;;;2.58;;
48574;SDS011;34352;51.084;3.712;2023-02-27T01:27:30;6.85;;;2.63;;
48574;SDS011;34352;51.084;3.712;2023-02-27T01:29:59;11.60;;;2.80;;
48574;SDS011;34352;51.084;3.712;2023-02-27T01:34:55;8.77;;;2.83;;
48574;SDS011;34352;51.084;3.712;2023-02-27T01:37:22;8.98;;;2.90;;
48574;SDS011;34352;51.084;3.712;2023-02-27T01:39:52;11.80;;;3.13;;
48574;SDS011;34352;51.084;3.712;2023-02-27T01:42:19;7.63;;;2.38;;
48574;SDS011;34352;51.084;3.712;2023-02-27T01:47:35;6.60;;;2.70;;
48574;SDS011;34352;51.084;3.712;2023-02-27T01:50:06;7.43;;;2.70;;
48574;SDS011;34352;51.084;3.712;2023-02-27T01:52:33;8.02;;;3.05;;
48574;SDS011;34352;51.084;3.712;2023-02-27T01:55:01;8.30;;;2.95;;
48574;SDS011;34352;51.084;3.712;2023-02-27T01:57:28;5.75;;;2.75;;
48574;SDS011;34352;51.084;3.712;2023-02-27T01:59:53;4.53;;;2.88;;
48574;SDS011;34352;51.084;3.712;2023-02-27T02:02:24;5.15;;;2.33;;
48574;SDS011;34352;51.084;3.712;2023-02-27T02:04:54;9.85;;;2.25;;
48574;SDS011;34352;51.084;3.712;2023-02-27T02:07:21;8.38;;;2.55;;
48574;SDS011;34352;51.084;3.712;2023-02-27T02:09:50;6.22;;;2.88;;
48574;SDS011;34352;51.084;3.712;2023-02-27T02:12:26;6.30;;;2.60;;
48574;SDS011;34352;51.084;3.712;2023-02-27T02:14:55;9.45;;;2.80;;
48574;SDS011;34352;51.084;3.712;2023-02-27T02:26:22;11.25;;;3.38;;
48574;SDS011;34352;51.084;3.712;2023-02-27T02:38:51;5.25;;;2.08;;
48574;SDS011;34352;51.084;3.712;2023-02-27T02:47:15;7.80;;;2.50;;
48574;SDS011;34352;51.084;3.712;2023-02-27T02:50:03;9.45;;;3.70;;
48574;SDS011;34352;51.084;3.712;2023-02-27T02:55:28;8.13;;;2.92;;
48574;SDS011;34352;51.084;3.712;2023-02-27T03:01:02;11.10;;;3.83;;
48574;SDS011;34352;51.084;3.712;2023-02-27T03:03:48;8.93;;;4.20;;
48574;SDS011;34352;51.084;3.712;2023-02-27T03:06:22;6.93;;;3.55;;
48574;SDS011;34352;51.084;3.712;2023-02-27T03:09:04;10.00;;;3.33;;
48574;SDS011;34352;51.084;3.712;2023-02-27T03:11:37;7.80;;;3.28;;
48574;SDS011;34352;51.084;3.712;2023-02-27T03:14:14;7.75;;;3.22;;
48574;SDS011;34352;51.084;3.712;2023-02-27T03:16:47;8.07;;;3.60;;
48574;SDS011;34352;51.084;3.712;2023-02-27T03:19:17;5.97;;;2.60;;
48574;SDS011;34352;51.084;3.712;2023-02-27T03:22:06;9.13;;;3.60;;
48574;SDS011;34352;51.084;3.712;2023-02-27T03:24:51;10.02;;;3.30;;
48574;SDS011;34352;51.084;3.712;2023-02-27T03:27:27;4.78;;;2.83;;
48574;SDS011;34352;51.084;3.712;2023-02-27T03:30:17;7.30;;;3.33;;
48574;SDS011;34352;51.084;3.712;2023-02-27T03:33:00;13.40;;;3.03;;
48574;SDS011;34352;51.084;3.712;2023-02-27T03:35:35;9.38;;;3.05;;
48574;SDS011;34352;51.084;3.712;2023-02-27T03:40:48;9.10;;;3.58;;
48574;SDS011;34352;51.084;3.712;2023-02-27T03:43:47;5.65;;;2.33;;
48574;SDS011;34352;51.084;3.712;2023-02-27T03:46:53;7.53;;;3.40;;
48574;SDS011;34352;51.084;3.712;2023-02-27T03:49:19;8.70;;;3.10;;
48574;SDS011;34352;51.084;3.712;2023-02-27T03:51:45;9.35;;;3.42;;
48574;SDS011;34352;51.084;3.712;2023-02-27T03:54:12;11.27;;;3.13;;
48574;SDS011;34352;51.084;3.712;2023-02-27T03:56:45;8.77;;;2.88;;
48574;SDS011;34352;51.084;3.712;2023-02-27T03:59:16;11.38;;;3.55;;
48574;SDS011;34352;51.084;3.712;2023-02-27T04:01:42;5.85;;;2.85;;
48574;SDS011;34352;51.084;3.712;2023-02-27T04:04:11;8.23;;;3.55;;
48574;SDS011;34352;51.084;3.712;2023-02-27T04:06:48;9.35;;;3.67;;
48574;SDS011;34352;51.084;3.712;2023-02-27T04:12:40;10.00;;;3.20;;
48574;SDS011;34352;51.084;3.712;2023-02-27T04:15:37;11.23;;;3.03;;
48574;SDS011;34352;51.084;3.712;2023-02-27T04:26:53;5.13;;;3.17;;
48574;SDS011;34352;51.084;3.712;2023-02-27T04:29:34;7.95;;;3.22;;
48574;SDS011;34352;51.084;3.712;2023-02-27T04:32:33;6.00;;;2.78;;
48574;SDS011;34352;51.084;3.712;2023-02-27T04:40:45;10.52;;;3.70;;
48574;SDS011;34352;51.084;3.712;2023-02-27T04:43:31;12.02;;;4.03;;
48574;SDS011;34352;51.084;3.712;2023-02-27T04:46:01;9.77;;;3.55;;
48574;SDS011;34352;51.084;3.712;2023-02-27T04:51:37;7.80;;;3.67;;
48574;SDS011;34352;51.084;3.712;2023-02-27T04:54:13;8.77;;;3.50;;
48574;SDS011;34352;51.084;3.712;2023-02-27T04:56:45;13.30;;;3.70;;
48574;SDS011;34352;51.084;3.712;2023-02-27T04:59:18;9.50;;;3.83;;
48574;SDS011;34352;51.084;3.712;2023-02-27T05:02:01;7.83;;;4.20;;
48574;SDS011;34352;51.084;3.712;2023-02-27T05:04:34;10.35;;;4.15;;
48574;SDS011;34352;51.084;3.712;2023-02-27T05:07:04;10.38;;;4.28;;
48574;SDS011;34352;51.084;3.712;2023-02-27T05:12:03;12.23;;;4.15;;
48574;SDS011;34352;51.084;3.712;2023-02-27T05:14:39;11.50;;;3.65;;
48574;SDS011;34352;51.084;3.712;2023-02-27T05:17:13;8.30;;;3.97;;
48574;SDS011;34352;51.084;3.712;2023-02-27T05:19:45;8.43;;;4.45;;
48574;SDS011;34352;51.084;3.712;2023-02-27T05:22:35;12.43;;;4.25;;
48574;SDS011;34352;51.084;3.712;2023-02-27T05:25:09;8.57;;;4.47;;
48574;SDS011;34352;51.084;3.712;2023-02-27T05:38:18;13.07;;;4.53;;
48574;SDS011;34352;51.084;3.712;2023-02-27T05:40:51;9.27;;;4.15;;
48574;SDS011;34352;51.084;3.712;2023-02-27T05:43:23;9.88;;;4.43;;
48574;SDS011;34352;51.084;3.712;2023-02-27T05:45:56;9.68;;;4.47;;
48574;SDS011;34352;51.084;3.712;2023-02-27T05:48:34;10.20;;;4.90;;
48574;SDS011;34352;51.084;3.712;2023-02-27T05:51:07;11.88;;;4.97;;
48574;SDS011;34352;51.084;3.712;2023-02-27T05:53:37;12.77;;;4.63;;
48574;SDS011;34352;51.084;3.712;2023-02-27T05:56:13;10.50;;;5.07;;
48574;SDS011;34352;51.084;3.712;2023-02-27T05:58:44;10.48;;;4.63;;
48574;SDS011;34352;51.084;3.712;2023-02-27T06:01:17;9.25;;;4.60;;
48574;SDS011;34352;51.084;3.712;2023-02-27T06:03:43;7.70;;;4.47;;
48574;SDS011;34352;51.084;3.712;2023-02-27T06:06:13;11.32;;;4.97;;
48574;SDS011;34352;51.084;3.712;2023-02-27T06:08:43;10.93;;;4.35;;
48574;SDS011;34352;51.084;3.712;2023-02-27T06:13:49;11.50;;;5.45;;
48574;SDS011;34352;51.084;3.712;2023-02-27T06:16:15;13.30;;;4.50;;
48574;SDS011;34352;51.084;3.712;2023-02-27T06:21:19;8.10;;;4.50;;
48574;SDS011;34352;51.084;3.712;2023-02-27T06:23:45;12.57;;;5.63;;
48574;SDS011;34352;51.084;3.712;2023-02-27T06:26:10;11.32;;;4.93;;
48574;SDS011;34352;51.084;3.712;2023-02-27T06:28:41;9.45;;;5.28;;
48574;SDS011;34352;51.084;3.712;2023-02-27T06:31:07;11.68;;;5.53;;
48574;SDS011;34352;51.084;3.712;2023-02-27T06:33:32;10.32;;;4.80;;
48574;SDS011;34352;51.084;3.712;2023-02-27T06:35:59;12.02;;;5.65;;
48574;SDS011;34352;51.084;3.712;2023-02-27T06:38:25;10.95;;;5.13;;
48574;SDS011;34352;51.084;3.712;2023-02-27T06:40:51;14.25;;;5.90;;
48574;SDS011;34352;51.084;3.712;2023-02-27T06:43:17;10.77;;;5.68;;
48574;SDS011;34352;51.084;3.712;2023-02-27T06:45:43;9.40;;;5.50;;
48574;SDS011;34352;51.084;3.712;2023-02-27T06:48:08;10.52;;;4.80;;
48574;SDS011;34352;51.084;3.712;2023-02-27T06:50:36;12.38;;;4.75;;
48574;SDS011;34352;51.084;3.712;2023-02-27T06:53:02;11.77;;;5.00;;
48574;SDS011;34352;51.084;3.712;2023-02-27T06:55:28;14.73;;;6.13;;
48574;SDS011;34352;51.084;3.712;2023-02-27T06:57:53;12.88;;;5.32;;
48574;SDS011;34352;51.084;3.712;2023-02-27T07:08:47;14.05;;;6.07;;
48574;SDS011;34352;51.084;3.712;2023-02-27T07:13:58;15.45;;;6.47;;
48574;SDS011;34352;51.084;3.712;2023-02-27T07:16:23;17.17;;;7.10;;
48574;SDS011;34352;51.084;3.712;2023-02-27T07:18:49;14.70;;;6.70;;
48574;SDS011;34352;51.084;3.712;2023-02-27T07:21:15;12.18;;;6.57;;
48574;SDS011;34352;51.084;3.712;2023-02-27T07:23:41;16.17;;;6.95;;
48574;SDS011;34352;51.084;3.712;2023-02-27T07:26:08;15.98;;;7.30;;
48574;SDS011;34352;51.084;3.712;2023-02-27T07:28:34;36.50;;;8.35;;
48574;SDS011;34352;51.084;3.712;2023-02-27T07:31:00;17.02;;;8.32;;
48574;SDS011;34352;51.084;3.712;2023-02-27T07:33:26;17.25;;;8.13;;
48574;SDS011;34352;51.084;3.712;2023-02-27T07:35:51;11.88;;;5.70;;
48574;SDS011;34352;51.084;3.712;2023-02-27T07:38:17;10.10;;;5.13;;
48574;SDS011;34352;51.084;3.712;2023-02-27T07:40:44;11.18;;;5.30;;
48574;SDS011;34352;51.084;3.712;2023-02-27T07:43:10;11.07;;;5.72;;
48574;SDS011;34352;51.084;3.712;2023-02-27T07:45:36;12.45;;;6.13;;
48574;SDS011;34352;51.084;3.712;2023-02-27T07:48:02;14.63;;;6.63;;
48574;SDS011;34352;51.084;3.712;2023-02-27T07:50:27;11.88;;;5.03;;
48574;SDS011;34352;51.084;3.712;2023-02-27T07:53:42;9.10;;;4.75;;
48574;SDS011;34352;51.084;3.712;2023-02-27T07:56:08;10.85;;;5.47;;
48574;SDS011;34352;51.084;3.712;2023-02-27T07:58:34;10.10;;;5.30;;
48574;SDS011;34352;51.084;3.712;2023-02-27T08:01:00;7.47;;;3.95;;
48574;SDS011;34352;51.084;3.712;2023-02-27T08:03:25;8.50;;;3.67;;
48574;SDS011;34352;51.084;3.712;2023-02-27T08:05:51;12.13;;;4.07;;
48574;SDS011;34352;51.084;3.712;2023-02-27T08:08:17;9.00;;;4.05;;
48574;SDS011;34352;51.084;3.712;2023-02-27T08:10:42;9.13;;;4.35;;
48574;SDS011;34352;51.084;3.712;2023-02-27T08:13:09;9.57;;;3.88;;
48574;SDS011;34352;51.084;3.712;2023-02-27T08:15:36;15.70;;;4.47;;
48574;SDS011;34352;51.084;3.712;2023-02-27T08:18:03;9.25;;;3.88;;
48574;SDS011;34352;51.084;3.712;2023-02-27T08:20:28;9.30;;;3.95;;
48574;SDS011;34352;51.084;3.712;2023-02-27T08:22:55;5.25;;;2.38;;
48574;SDS011;34352;51.084;3.712;2023-02-27T08:25:22;9.27;;;3.40;;
48574;SDS011;34352;51.084;3.712;2023-02-27T08:27:50;10.40;;;2.70;;
48574;SDS011;34352;51.084;3.712;2023-02-27T08:30:15;10.20;;;3.08;;
48574;SDS011;34352;51.084;3.712;2023-02-27T08:32:41;12.75;;;4.00;;
48574;SDS011;34352;51.084;3.712;2023-02-27T08:35:08;9.35;;;3.78;;
48574;SDS011;34352;51.084;3.712;2023-02-27T08:37:34;6.72;;;3.45;;
48574;SDS011;34352;51.084;3.712;2023-02-27T08:40:00;8.20;;;3.33;;
48574;SDS011;34352;51.084;3.712;2023-02-27T08:42:26;8.77;;;3.67;;
48574;SDS011;34352;51.084;3.712;2023-02-27T08:44:51;13.32;;;3.65;;
48574;SDS011;34352;51.084;3.712;2023-02-27T08:47:17;8.20;;;3.78;;
48574;SDS011;34352;51.084;3.712;2023-02-27T08:49:43;15.15;;;3.75;;
48574;SDS011;34352;51.084;3.712;2023-02-27T08:52:09;13.75;;;4.50;;
48574;SDS011;34352;51.084;3.712;2023-02-27T08:54:35;12.70;;;3.67;;
48574;SDS011;34352;51.084;3.712;2023-02-27T08:57:01;13.00;;;4.03;;
48574;SDS011;34352;51.084;3.712;2023-02-27T08:59:28;11.93;;;3.90;;
48574;SDS011;34352;51.084;3.712;2023-02-27T09:01:53;8.63;;;3.38;;
48574;SDS011;34352;51.084;3.712;2023-02-27T09:04:19;11.70;;;4.35;;
48574;SDS011;34352;51.084;3.712;2023-02-27T09:06:45;6.47;;;3.10;;
48574;SDS011;34352;51.084;3.712;2023-02-27T09:09:12;10.15;;;2.88;;
48574;SDS011;34352;51.084;3.712;2023-02-27T09:11:38;8.10;;;3.20;;
48574;SDS011;34352;51.084;3.712;2023-02-27T09:14:04;10.65;;;3.50;;
48574;SDS011;34352;51.084;3.712;2023-02-27T09:16:30;8.23;;;3.28;;
48574;SDS011;34352;51.084;3.712;2023-02-27T09:18:55;8.85;;;3.15;;
48574;SDS011;34352;51.084;3.712;2023-02-27T09:21:21;8.90;;;3.03;;
48574;SDS011;34352;51.084;3.712;2023-02-27T09:23:48;9.43;;;3.20;;
48574;SDS011;34352;51.084;3.712;2023-02-27T09:26:14;9.10;;;2.92;;
48574;SDS011;34352;51.084;3.712;2023-02-27T09:28:41;6.97;;;2.83;;
48574;SDS011;34352;51.084;3.712;2023-02-27T09:31:08;6.78;;;2.92;;
48574;SDS011;34352;51.084;3.712;2023-02-27T09:33:35;7.70;;;2.95;;
48574;SDS011;34352;51.084;3.712;2023-02-27T09:36:01;11.50;;;2.85;;
48574;SDS011;34352;51.084;3.712;2023-02-27T09:38:29;6.97;;;3.20;;
48574;SDS011;34352;51.084;3.712;2023-02-27T09:40:56;5.57;;;2.40;;
48574;SDS011;34352;51.084;3.712;2023-02-27T09:43:37;6.55;;;2.60;;
48574;SDS011;34352;51.084;3.712;2023-02-27T09:46:10;6.32;;;2.53;;
48574;SDS011;34352;51.084;3.712;2023-02-27T09:48:44;6.70;;;2.70;;
48574;SDS011;34352;51.084;3.712;2023-02-27T09:51:14;8.73;;;3.17;;
48574;SDS011;34352;51.084;3.712;2023-02-27T09:53:45;8.15;;;2.30;;
48574;SDS011;34352;51.084;3.712;2023-02-27T10:07:34;8.52;;;2.25;;
48574;SDS011;34352;51.084;3.712;2023-02-27T10:10:27;7.53;;;2.30;;
48574;SDS011;34352;51.084;3.712;2023-02-27T10:15:51;13.07;;;2.67;;
48574;SDS011;34352;51.084;3.712;2023-02-27T10:18:26;7.28;;;2.65;;
48574;SDS011;34352;51.084;3.712;2023-02-27T10:20:56;6.82;;;2.47;;
48574;SDS011;34352;51.084;3.712;2023-02-27T10:23:36;4.97;;;2.42;;
48574;SDS011;34352;51.084;3.712;2023-02-27T10:26:06;13.35;;;2.42;;
48574;SDS011;34352;51.084;3.712;2023-02-27T10:28:41;7.60;;;3.17;;
48574;SDS011;34352;51.084;3.712;2023-02-27T10:31:10;6.28;;;2.55;;
48574;SDS011;34352;51.084;3.712;2023-02-27T10:33:45;4.32;;;2.05;;
48574;SDS011;34352;51.084;3.712;2023-02-27T10:36:13;8.07;;;2.83;;
48574;SDS011;34352;51.084;3.712;2023-02-27T10:38:41;3.05;;;2.00;;
48574;SDS011;34352;51.084;3.712;2023-02-27T10:41:19;5.85;;;2.60;;
48574;SDS011;34352;51.084;3.712;2023-02-27T10:43:47;5.40;;;2.35;;
48574;SDS011;34352;51.084;3.712;2023-02-27T10:46:33;9.43;;;2.63;;
48574;SDS011;34352;51.084;3.712;2023-02-27T10:49:11;6.72;;;2.45;;
48574;SDS011;34352;51.084;3.712;2023-02-27T10:51:43;5.93;;;2.33;;
48574;SDS011;34352;51.084;3.712;2023-02-27T10:57:05;5.97;;;2.50;;
48574;SDS011;34352;51.084;3.712;2023-02-27T10:59:43;5.20;;;2.50;;
48574;SDS011;34352;51.084;3.712;2023-02-27T11:02:24;3.67;;;2.07;;
48574;SDS011;34352;51.084;3.712;2023-02-27T11:05:02;4.03;;;2.13;;
48574;SDS011;34352;51.084;3.712;2023-02-27T11:07:31;6.60;;;1.80;;
48574;SDS011;34352;51.084;3.712;2023-02-27T11:12:39;5.15;;;2.17;;
48574;SDS011;34352;51.084;3.712;2023-02-27T11:17:41;3.75;;;1.48;;
48574;SDS011;34352;51.084;3.712;2023-02-27T11:23:16;5.82;;;1.70;;
48574;SDS011;34352;51.084;3.712;2023-02-27T11:25:44;10.85;;;2.03;;
48574;SDS011;34352;51.084;3.712;2023-02-27T11:28:11;3.95;;;1.92;;
48574;SDS011;34352;51.084;3.712;2023-02-27T11:33:53;10.68;;;2.28;;
48574;SDS011;34352;51.084;3.712;2023-02-27T11:36:20;4.18;;;1.65;;
48574;SDS011;34352;51.084;3.712;2023-02-27T11:38:50;3.53;;;1.65;;
48574;SDS011;34352;51.084;3.712;2023-02-27T11:41:18;4.93;;;1.40;;
48574;SDS011;34352;51.084;3.712;2023-02-27T11:43:53;6.25;;;2.00;;
48574;SDS011;34352;51.084;3.712;2023-02-27T11:46:21;3.15;;;2.35;;
48574;SDS011;34352;51.084;3.712;2023-02-27T11:48:49;4.93;;;1.75;;
48574;SDS011;34352;51.084;3.712;2023-02-27T11:56:59;2.75;;;1.67;;
48574;SDS011;34352;51.084;3.712;2023-02-27T12:02:42;2.13;;;1.40;;
48574;SDS011;34352;51.084;3.712;2023-02-27T12:05:17;6.05;;;1.63;;
48574;SDS011;34352;51.084;3.712;2023-02-27T12:07:51;3.33;;;1.88;;
48574;SDS011;34352;51.084;3.712;2023-02-27T12:10:19;5.55;;;1.95;;
48574;SDS011;34352;51.084;3.712;2023-02-27T12:12:51;4.10;;;1.70;;
48574;SDS011;34352;51.084;3.712;2023-02-27T12:16:04;4.65;;;1.75;;
48574;SDS011;34352;51.084;3.712;2023-02-27T12:18:33;4.70;;;1.75;;
48574;SDS011;34352;51.084;3.712;2023-02-27T12:21:12;4.85;;;1.88;;
48574;SDS011;34352;51.084;3.712;2023-02-27T12:28:50;2.83;;;1.50;;
48574;SDS011;34352;51.084;3.712;2023-02-27T12:37:03;5.50;;;1.88;;
48574;SDS011;34352;51.084;3.712;2023-02-27T12:39:34;6.35;;;2.20;;
48574;SDS011;34352;51.084;3.712;2023-02-27T12:50:17;3.22;;;1.40;;
48574;SDS011;34352;51.084;3.712;2023-02-27T12:55:22;4.20;;;1.70;;
48574;SDS011;34352;51.084;3.712;2023-02-27T13:00:25;1.73;;;1.52;;
48574;SDS011;34352;51.084;3.712;2023-02-27T13:05:57;3.80;;;1.58;;
48574;SDS011;34352;51.084;3.712;2023-02-27T13:16:21;7.50;;;2.00;;
48574;SDS011;34352;51.084;3.712;2023-02-27T13:26:48;5.18;;;2.20;;
48574;SDS011;34352;51.084;3.712;2023-02-27T13:29:18;4.68;;;2.17;;
48574;SDS011;34352;51.084;3.712;2023-02-27T13:31:57;2.13;;;1.45;;
48574;SDS011;34352;51.084;3.712;2023-02-27T13:34:26;5.57;;;1.80;;
48574;SDS011;34352;51.084;3.712;2023-02-27T13:37:02;4.70;;;1.60;;
48574;SDS011;34352;51.084;3.712;2023-02-27T13:44:53;7.45;;;1.75;;
48574;SDS011;34352;51.084;3.712;2023-02-27T13:49:55;3.15;;;1.60;;
48574;SDS011;34352;51.084;3.712;2023-02-27T13:54:54;4.50;;;1.92;;
48574;SDS011;34352;51.084;3.712;2023-02-27T13:57:21;8.82;;;1.98;;
48574;SDS011;34352;51.084;3.712;2023-02-27T13:59:59;7.75;;;2.00;;
48574;SDS011;34352;51.084;3.712;2023-02-27T14:05:11;3.72;;;1.60;;
48574;SDS011;34352;51.084;3.712;2023-02-27T14:07:54;3.35;;;1.83;;
48574;SDS011;34352;51.084;3.712;2023-02-27T14:10:39;4.97;;;1.70;;
48574;SDS011;34352;51.084;3.712;2023-02-27T14:24:27;3.55;;;1.70;;
48574;SDS011;34352;51.084;3.712;2023-02-27T14:27:03;7.28;;;2.00;;
48574;SDS011;34352;51.084;3.712;2023-02-27T14:29:42;4.00;;;1.80;;
48574;SDS011;34352;51.084;3.712;2023-02-27T14:32:16;4.38;;;1.65;;
48574;SDS011;34352;51.084;3.712;2023-02-27T14:34:48;7.55;;;2.10;;
48574;SDS011;34352;51.084;3.712;2023-02-27T14:37:16;4.25;;;1.90;;
48574;SDS011;34352;51.084;3.712;2023-02-27T14:45:24;2.67;;;1.70;;
48574;SDS011;34352;51.084;3.712;2023-02-27T14:47:52;4.88;;;1.83;;
48574;SDS011;34352;51.084;3.712;2023-02-27T14:50:25;3.70;;;2.00;;
48574;SDS011;34352;51.084;3.712;2023-02-27T14:52:51;7.80;;;2.00;;
48574;SDS011;34352;51.084;3.712;2023-02-27T14:57:53;4.25;;;1.90;;
48574;SDS011;34352;51.084;3.712;2023-02-27T15:02:59;9.88;;;2.30;;
48574;SDS011;34352;51.084;3.712;2023-02-27T15:05:33;6.85;;;2.03;;
48574;SDS011;34352;51.084;3.712;2023-02-27T15:07:59;7.22;;;2.00;;
48574;SDS011;34352;51.084;3.712;2023-02-27T15:10:28;4.80;;;2.03;;
48574;SDS011;34352;51.084;3.712;2023-02-27T15:12:56;5.65;;;2.35;;
48574;SDS011;34352;51.084;3.712;2023-02-27T15:15:22;5.90;;;2.80;;
48574;SDS011;34352;51.084;3.712;2023-02-27T15:17:50;7.53;;;2.92;;
48574;SDS011;34352;51.084;3.712;2023-02-27T15:20:23;8.02;;;2.90;;
48574;SDS011;34352;51.084;3.712;2023-02-27T15:23:39;7.05;;;2.80;;
48574;SDS011;34352;51.084;3.712;2023-02-27T15:25:53;4.03;;;2.15;;
48574;SDS011;34352;51.084;3.712;2023-02-27T15:28:24;2.55;;;2.03;;
48574;SDS011;34352;51.084;3.712;2023-02-27T15:31:01;6.30;;;2.50;;
48574;SDS011;34352;51.084;3.712;2023-02-27T15:33:27;4.60;;;2.58;;
48574;SDS011;34352;51.084;3.712;2023-02-27T15:35:54;3.92;;;2.30;;
48574;SDS011;34352;51.084;3.712;2023-02-27T15:40:54;5.35;;;3.15;;
48574;SDS011;34352;51.084;3.712;2023-02-27T15:43:21;3.17;;;2.40;;
48574;SDS011;34352;51.084;3.712;2023-02-27T15:45:48;5.45;;;2.45;;
48574;SDS011;34352;51.084;3.712;2023-02-27T15:48:16;7.10;;;3.40;;
48574;SDS011;34352;51.084;3.712;2023-02-27T15:50:47;4.63;;;2.20;;
48574;SDS011;34352;51.084;3.712;2023-02-27T15:53:17;3.88;;;1.80;;
48574;SDS011;34352;51.084;3.712;2023-02-27T15:55:50;4.45;;;2.00;;
48574;SDS011;34352;51.084;3.712;2023-02-27T15:58:24;5.57;;;2.50;;
48574;SDS011;34352;51.084;3.712;2023-02-27T16:00:56;6.00;;;2.80;;
48574;SDS011;34352;51.084;3.712;2023-02-27T16:03:27;5.00;;;2.47;;
48574;SDS011;34352;51.084;3.712;2023-02-27T16:05:57;7.32;;;3.13;;
48574;SDS011;34352;51.084;3.712;2023-02-27T16:08:23;7.00;;;3.50;;
48574;SDS011;34352;51.084;3.712;2023-02-27T16:10:49;6.30;;;2.53;;
48574;SDS011;34352;51.084;3.712;2023-02-27T16:15:58;4.47;;;2.67;;
48574;SDS011;34352;51.084;3.712;2023-02-27T16:18:30;4.35;;;2.65;;
48574;SDS011;34352;51.084;3.712;2023-02-27T16:21:24;4.22;;;2.22;;
48574;SDS011;34352;51.084;3.712;2023-02-27T16:23:49;6.80;;;2.80;;
48574;SDS011;34352;51.084;3.712;2023-02-27T16:31:53;5.97;;;2.00;;
48574;SDS011;34352;51.084;3.712;2023-02-27T16:34:33;3.03;;;2.10;;
48574;SDS011;34352;51.084;3.712;2023-02-27T16:37:04;5.40;;;2.60;;
48574;SDS011;34352;51.084;3.712;2023-02-27T16:39:33;3.10;;;2.45;;
48574;SDS011;34352;51.084;3.712;2023-02-27T16:41:59;9.45;;;3.45;;
48574;SDS011;34352;51.084;3.712;2023-02-27T16:44:25;6.57;;;2.47;;
48574;SDS011;34352;51.084;3.712;2023-02-27T16:46:52;6.82;;;2.67;;
48574;SDS011;34352;51.084;3.712;2023-02-27T16:51:46;4.38;;;2.60;;
48574;SDS011;34352;51.084;3.712;2023-02-27T16:54:12;6.80;;;2.72;;
48574;SDS011;34352;51.084;3.712;2023-02-27T16:56:40;4.93;;;2.45;;
48574;SDS011;34352;51.084;3.712;2023-02-27T16:59:08;10.73;;;4.07;;
48574;SDS011;34352;51.084;3.712;2023-02-27T17:01:57;7.53;;;3.33;;
48574;SDS011;34352;51.084;3.712;2023-02-27T17:04:25;10.35;;;3.72;;
48574;SDS011;34352;51.084;3.712;2023-02-27T17:06:52;9.15;;;4.10;;
48574;SDS011;34352;51.084;3.712;2023-02-27T17:09:19;6.80;;;3.70;;
48574;SDS011;34352;51.084;3.712;2023-02-27T17:11:45;6.93;;;3.47;;
48574;SDS011;34352;51.084;3.712;2023-02-27T17:14:12;6.05;;;2.30;;
48574;SDS011;34352;51.084;3.712;2023-02-27T17:16:40;4.70;;;2.63;;
48574;SDS011;34352;51.084;3.712;2023-02-27T17:19:05;5.15;;;2.95;;
48574;SDS011;34352;51.084;3.712;2023-02-27T17:21:31;5.57;;;2.92;;
48574;SDS011;34352;51.084;3.712;2023-02-27T17:23:58;6.10;;;3.80;;
48574;SDS011;34352;51.084;3.712;2023-02-27T17:26:23;8.25;;;3.30;;
48574;SDS011;34352;51.084;3.712;2023-02-27T17:28:50;8.32;;;4.40;;
48574;SDS011;34352;51.084;3.712;2023-02-27T17:31:17;4.95;;;2.53;;
48574;SDS011;34352;51.084;3.712;2023-02-27T17:33:48;3.70;;;1.98;;
48574;SDS011;34352;51.084;3.712;2023-02-27T17:36:15;5.28;;;2.38;;
48574;SDS011;34352;51.084;3.712;2023-02-27T17:38:41;5.55;;;2.80;;
48574;SDS011;34352;51.084;3.712;2023-02-27T17:41:09;8.75;;;4.15;;
48574;SDS011;34352;51.084;3.712;2023-02-27T17:43:37;6.28;;;3.30;;
48574;SDS011;34352;51.084;3.712;2023-02-27T17:46:04;5.88;;;2.58;;
48574;SDS011;34352;51.084;3.712;2023-02-27T17:48:30;7.88;;;2.83;;
48574;SDS011;34352;51.084;3.712;2023-02-27T17:51:02;7.75;;;3.08;;
48574;SDS011;34352;51.084;3.712;2023-02-27T17:53:33;8.13;;;2.70;;
48574;SDS011;34352;51.084;3.712;2023-02-27T17:55:59;3.97;;;2.83;;
48574;SDS011;34352;51.084;3.712;2023-02-27T17:58:24;5.63;;;2.70;;
48574;SDS011;34352;51.084;3.712;2023-02-27T18:00:51;6.72;;;2.92;;
48574;SDS011;34352;51.084;3.712;2023-02-27T18:03:17;6.65;;;3.30;;
48574;SDS011;34352;51.084;3.712;2023-02-27T18:05:46;6.93;;;4.05;;
48574;SDS011;34352;51.084;3.712;2023-02-27T18:08:16;7.93;;;3.10;;
48574;SDS011;34352;51.084;3.712;2023-02-27T18:10:46;4.25;;;3.15;;
48574;SDS011;34352;51.084;3.712;2023-02-27T18:13:12;5.40;;;2.95;;
48574;SDS011;34352;51.084;3.712;2023-02-27T18:15:38;5.57;;;2.85;;
48574;SDS011;34352;51.084;3.712;2023-02-27T18:18:03;8.75;;;3.00;;
48574;SDS011;34352;51.084;3.712;2023-02-27T18:20:29;6.03;;;2.83;;
48574;SDS011;34352;51.084;3.712;2023-02-27T18:22:55;5.35;;;2.90;;
48574;SDS011;34352;51.084;3.712;2023-02-27T18:25:21;6.25;;;2.38;;
48574;SDS011;34352;51.084;3.712;2023-02-27T18:27:47;5.18;;;2.40;;
48574;SDS011;34352;51.084;3.712;2023-02-27T18:30:14;3.55;;;2.53;;
48574;SDS011;34352;51.084;3.712;2023-02-27T18:32:40;4.40;;;2.55;;
48574;SDS011;34352;51.084;3.712;2023-02-27T18:35:06;5.28;;;2.58;;
48574;SDS011;34352;51.084;3.712;2023-02-27T18:37:33;4.72;;;2.70;;
48574;SDS011;34352;51.084;3.712;2023-02-27T18:39:58;5.38;;;2.97;;
48574;SDS011;34352;51.084;3.712;2023-02-27T18:42:24;4.53;;;3.08;;
48574;SDS011;34352;51.084;3.712;2023-02-27T18:44:50;6.72;;;3.60;;
48574;SDS011;34352;51.084;3.712;2023-02-27T18:47:15;5.88;;;3.10;;